Tiempo atmosférico en la estación meteorológica de Almendralejo, Badajoz (371 m.)



Fecha
DESCASC
Temp. máxima en grados centígrados (hora)
DESCASC
Temp. mínima en grados centígrados (hora)
DESCASC
Temp. media en grados centígrados
DESCASC
Racha de viento máxima en m/sg (hora)
DESCASC
Velocidad máxima media en intervalos de 10 minutos(hora)
DESCASC
Precipitaciones diarias en mm
DESCASC
Precipitaciones de 00:00 a 06:00 en mm
DESCASC
Precipitaciones de 06:00 a 12:00 en mm
DESCASC
Precipitaciones de 12:00 a 18:00 en mm
DESCASC
Precipitaciones de 18:00 a 24:00 en mm
DESCASC
08-12-2019 13.2 (13:30) 4.6 (08:00) 8.9 6.39 (14:10) 4.17 (14:20) 0.4 0 0 0.2 0.2
07-12-2019 14.3 (15:50) 3.7 (09:10) 9 4.17 (14:00) 2.78 (09:30) 0 0 0 0 0
06-12-2019 14.7 (15:50) 6.5 (08:40) 10.6 5.83 (14:50) 3.89 (15:40) 0 0 0 0 0
05-12-2019 14.6 (15:50) 6 (00:00) 10.3 8.89 (15:30) 5.56 (15:40) 0 0 0 0 0
04-12-2019 11.7 (13:40) 6.8 (00:00) 9.3 4.17 (15:00) 2.78 (15:00) 0 0 0 0 0
03-12-2019 13.5 (15:50) 6.9 (00:00) 10.2 7.78 (11:10) 5.56 (11:10) 0 0 0 0 0
02-12-2019 12.8 (15:30) 7.2 (00:00) 10 12.78 (14:40) 8.33 (14:50) 0 0 0 0 0
01-12-2019 13.7 (14:10) 8 (00:00) 10.8 9.44 (16:10) 6.39 (15:20) 8.4 0.2 3.2 3.6 1.4
30-11-2019 16.3 (15:20) 10.2 (00:00) 13.2 11.67 (20:00) 6.67 (20:00) 1 0 0 0 1
29-11-2019 17.7 (13:50) 11.3 (00:00) 14.5 7.22 (14:20) 5 (01:50) 0 0 0 0 0
28-11-2019 16.3 (15:10) 8.7 (00:00) 12.5 7.78 (13:30) 5.83 (13:30) 0 0 0 0 0
27-11-2019 15.8 (15:10) 10.4 (00:00) 13.1 9.44 (02:20) 6.11 (02:40) 0.6 0.6 0 0 0
26-11-2019 18.1 (15:20) 11.5 (00:00) 14.8 12.78 (13:50) 8.89 (13:50) 1.6 0 0 0 1.6
25-11-2019 18 (15:00) 11.5 (00:00) 14.8 9.72 (00:30) 6.39 (09:30) 1.4 0.6 0.8 0 0
24-11-2019 14.1 (15:20) 5.8 (00:00) 10 8.06 (23:40) 5.83 (23:59) 0 0 0 0 0
23-11-2019 13.3 (14:30) 7.8 (00:00) 10.6 22.78 (00:30) 12.5 (00:30) 1.2 1.2 0 0 0
22-11-2019 15.3 (13:50) 9.2 (00:00) 12.3 19.17 (11:40) 11.94 (12:00) 17 0.6 5.4 10.8 0.2
21-11-2019 12.9 (13:50) 8.5 (00:00) 10.7 6.39 (00:20) 4.72 (00:20) 6 0 4.2 1.8 0
20-11-2019 13.1 (16:40) 5.1 (00:00) 9.1 10.28 (13:30) 6.94 (13:20) 15.4 0 9.2 0.4 5.8
19-11-2019 12 (14:30) 3.2 (00:00) 7.6 3.61 (23:40) 3.06 (23:40) 0 0 0 0 0
18-11-2019 13.1 (16:50) 4.3 (00:00) 8.7 9.44 (00:40) 5.83 (00:20) 0 0 0 0 0
17-11-2019 14.6 (15:50) 5.7 (00:00) 10.2 11.67 (22:30) 7.5 (17:50) 7.4 0.8 1.4 3.2 2
16-11-2019 12.7 (15:40) 1.4 (00:00) 7 7.78 (17:30) 5 (17:30) 0 0 0 0 0
15-11-2019 11.6 (15:30) 4.3 (00:00) 8 11.11 (15:00) 6.94 (10:40) 0 0 0 0 0
14-11-2019 11.6 (13:30) 6.6 (00:00) 9.1 17.5 (14:50) 10.28 (12:30) 3.2 0 3.2 0 0
13-11-2019 18.8 (14:40) 10 (00:00) 14.4 12.22 (10:50) 8.06 (10:50) 0 0 0 0 0
12-11-2019 15.9 (15:40) 6.6 (00:00) 11.2 11.67 (15:10) 6.94 (16:10) 0 0 0 0 0
11-11-2019 16.3 (15:50) 9.4 (00:50) 12.8 8.89 (13:40) 5.56 (13:20) 1.4 1.4 0 0 0
10-11-2019 13.8 (12:50) 7.2 (00:00) 10.5 12.22 (12:10) 8.33 (13:00) 0.2 0 0 0.2 0

Gráficas

Temp. máximas Temp. mínimas Temp. medias Precipitaciones Rachas de viento máximas Velocidades máximas media en intervalos de 10 minutos

Datos horarios

Fecha y hora oficial Temperatura (ºC) Velocidad del viento (km/h) Dirección del viento Racha (km/h) Dirección de racha Precipitación (mm) Presión (hPa) Tendencia (hPa) Humedad (%)
2019-12-09 23:00:00 9.2 2 Nordeste 5 Norte 0 -- -- 85
2019-12-09 22:00:00 10.1 4 Norte 5 Noroeste 0 -- -- 83
2019-12-09 21:00:00 10.4 4 Norte 6 Noroeste 0 -- -- 83
2019-12-09 20:00:00 10.5 2 Nordeste 6 Nordeste 0 -- -- 83
2019-12-09 19:00:00 11 5 Nordeste 6 Nordeste 0 -- -- 81
2019-12-09 18:00:00 12.9 4 Nordeste 13 Norte 0 -- -- 73
2019-12-09 17:00:00 13.3 6 Nordeste 10 Nordeste 0 -- -- 73
2019-12-09 16:00:00 14.4 4 Norte 15 Norte 0 -- -- 70
2019-12-09 15:00:00 14 11 Norte 17 Norte 0 -- -- 71
2019-12-09 14:00:00 13.7 10 Norte 21 Norte 0 -- -- 77
2019-12-09 13:00:00 13.3 6 Noroeste 13 Noroeste 0 -- -- 83
2019-12-09 12:00:00 12.4 4 Noroeste 12 Norte 0 -- -- 88
2019-12-09 11:00:00 11.5 6 Norte 11 Norte 0 -- -- 98
2019-12-09 10:00:00 11.2 4 Noroeste 6 Oeste 0 -- -- 100
2019-12-09 09:00:00 10.8 2 Sudoeste 4 Sudoeste 0 -- -- 100
2019-12-09 08:00:00 10.7 2 Norte 9 Norte 0 -- -- 100
2019-12-09 07:00:00 10.7 5 Norte 10 Norte 0 -- -- 100
2019-12-09 06:00:00 10.7 6 Norte 19 Norte 0 -- -- 100
2019-12-09 05:00:00 11.3 17 Norte 22 Norte 0.2 -- -- 100
2019-12-09 04:00:00 12.1 11 Norte 19 Norte 0 -- -- 100
2019-12-09 03:00:00 12.1 7 Noroeste 11 Noroeste 0 -- -- 100
2019-12-09 02:00:00 12 6 Noroeste 11 Noroeste 0 -- -- 99
2019-12-09 01:00:00 12.1 7 Noroeste 12 Oeste 0.2 -- -- 99
2019-12-09 00:00:00 11.9 8 Norte 12 Norte 0 -- -- 99
2019-12-08 23:00:00 11.7 3 Noroeste 8 Noroeste 0 -- -- 98
2019-12-08 22:00:00 11.5 5 Noroeste 7 Oeste 0.2 -- -- 97
2019-12-08 21:00:00 11.5 5 Noroeste 7 Noroeste 0 -- -- 97
2019-12-08 20:00:00 11.4 0 Calma 6 Noroeste 0 -- -- 96
2019-12-08 19:00:00 11.5 4 Noroeste 6 Noroeste 0 -- -- 96
2019-12-08 18:00:00 11.8 5 Norte 15 Noroeste 0.2 -- -- 94
2019-12-08 17:00:00 12.5 10 Noroeste 15 Noroeste 0 -- -- 90
2019-12-08 16:00:00 12.5 10 Norte 18 Noroeste 0 -- -- 88
2019-12-08 15:00:00 12.6 11 Noroeste 23 Norte 0 -- -- 85
2019-12-08 14:00:00 12.8 15 Noroeste 23 Noroeste 0 -- -- 80
2019-12-08 13:00:00 13 4 Noroeste 9 Noroeste 0 -- -- 78
2019-12-08 12:00:00 11.7 2 Noroeste 7 Oeste 0 -- -- 83
2019-12-08 11:00:00 11.1 3 Oeste 6 Oeste 0 -- -- 85
2019-12-08 10:00:00 7.2 6 Sudoeste 10 Sudoeste 0 -- -- 95
2019-12-08 09:00:00 5 6 Sudoeste 8 Sudoeste 0 -- -- 97
2019-12-08 08:00:00 4.6 7 Sudoeste 8 Sudoeste 0 -- -- 96
2019-12-08 07:00:00 6 5 Sudoeste 7 Oeste 0 -- -- 95
2019-12-08 06:00:00 5.8 3 Sudoeste 6 Sudoeste 0 -- -- 96
2019-12-08 05:00:00 6.4 3 Sudoeste 4 Noroeste 0 -- -- 90
2019-12-08 04:00:00 7 4 Oeste 9 Sudoeste 0 -- -- 95
2019-12-08 03:00:00 6.1 8 Sudoeste 12 Sudoeste 0 -- -- 94
2019-12-08 02:00:00 6.6 7 Sur 9 Sur 0 -- -- 89
2019-12-08 01:00:00 8.3 4 Noroeste 6 Noroeste 0 -- -- 90
2019-12-08 00:00:00 8.9 2 Noroeste 8 Oeste 0 -- -- 87
2019-12-07 23:00:00 9.2 4 Oeste -- -- 0 -- -- 84
2019-12-07 22:00:00 9.7 6 Oeste 8 Oeste 0 -- -- 82
2019-12-07 21:00:00 10.8 4 Noroeste 5 Norte 0 -- -- 79
2019-12-07 20:00:00 11 2 Nordeste 6 Norte 0 -- -- 77
2019-12-07 19:00:00 11.4 5 Nordeste 7 Norte 0 -- -- 77
2019-12-07 18:00:00 12.6 4 Nordeste 9 Este 0 -- -- 73
2019-12-07 17:00:00 13.9 7 Este 12 Nordeste 0 -- -- 66
2019-12-07 16:00:00 14.2 6 Este 14 Este 0 -- -- 68
2019-12-07 15:00:00 13.9 7 Nordeste 14 Nordeste 0 -- -- 72
2019-12-07 14:00:00 12.9 8 Nordeste 15 Nordeste 0 -- -- 77
2019-12-07 13:00:00 11.7 8 Nordeste 13 Nordeste 0 -- -- 83
2019-12-07 12:00:00 10.9 7 Nordeste 11 Nordeste 0 -- -- 84
2019-12-07 11:00:00 9 5 Sur 12 Sur 0 -- -- 92
2019-12-07 10:00:00 5.7 9 Sur 13 Sur 0 -- -- 100
2019-12-07 09:00:00 4 8 Sur 9 Sur 0 -- -- 98
2019-12-07 08:00:00 5.1 7 Sudeste 9 Nordeste 0 -- -- 98
2019-12-07 07:00:00 5.7 0 Calma 5 Sur 0 -- -- 99
2019-12-07 06:00:00 4.7 3 Sudoeste 9 Sur 0 -- -- 98
2019-12-07 05:00:00 5.5 3 Sudeste 9 Sudeste 0 -- -- 95
2019-12-07 04:00:00 6 3 Este 10 Sur 0 -- -- 95
2019-12-07 03:00:00 6.4 8 Sudeste 10 Este 0 -- -- 93
2019-12-07 02:00:00 7.8 8 Este 12 Este 0 -- -- 91
2019-12-07 01:00:00 8.1 6 Este 9 Este 0 -- -- 89
2019-12-07 00:00:00 8.9 9 Nordeste 12 Nordeste 0 -- -- 86
2019-12-06 23:00:00 9.2 8 Nordeste 11 Este 0 -- -- 85
2019-12-06 22:00:00 10 5 Este 7 Nordeste 0 -- -- 82
2019-12-06 21:00:00 10.8 6 Nordeste 12 Nordeste 0 -- -- 80
2019-12-06 20:00:00 11.1 7 Nordeste 11 Este 0 -- -- 79
2019-12-06 19:00:00 11.8 4 Nordeste 9 Este 0 -- -- 76
2019-12-06 18:00:00 13.2 4 Nordeste 17 Este 0 -- -- 73
2019-12-06 17:00:00 14.2 13 Este 21 Nordeste 0 -- -- 69
2019-12-06 16:00:00 14.6 13 Nordeste 21 Nordeste 0 -- -- 69
2019-12-06 15:00:00 14.1 14 Este 21 Nordeste 0 -- -- 72
2019-12-06 14:00:00 13.5 12 Este 19 Este 0 -- -- 74
2019-12-06 13:00:00 12.5 10 Este 20 Nordeste 0 -- -- 78
2019-12-06 12:00:00 11.4 9 Este 14 Este 0 -- -- 81
2019-12-06 11:00:00 9.9 8 Este 12 Este 0 -- -- 87
2019-12-06 10:00:00 8.2 4 Nordeste 9 Sudeste 0 -- -- 91
2019-12-06 09:00:00 6.5 7 Sudeste 12 Sudeste 0 -- -- 95
2019-12-06 08:00:00 7.1 8 Sudeste 13 Sudeste 0 -- -- 94
2019-12-06 07:00:00 6.9 8 Sudeste 16 Sudeste 0 -- -- 94
2019-12-06 06:00:00 7.2 8 Este 15 Este 0 -- -- 94
2019-12-06 05:00:00 7.2 11 Este 19 Este 0 -- -- 93
2019-12-06 04:00:00 7.6 9 Este 14 Este 0 -- -- 90
2019-12-06 03:00:00 8.7 9 Sudeste 15 Sudeste 0 -- -- 86
2019-12-06 02:00:00 8.3 8 Sur 16 Este 0 -- -- 87
2019-12-06 01:00:00 8.9 10 Sudeste 19 Sudeste 0 -- -- 84
2019-12-06 00:00:00 9.5 0 Calma 25 Sudeste 0 -- -- 82
2019-12-05 23:00:00 10 12 Este 18 Este 0 -- -- 81
2019-12-05 22:00:00 10.3 8 Este 20 Este 0 -- -- 79
2019-12-05 21:00:00 11 10 Este 19 Este 0 -- -- 76
2019-12-05 20:00:00 11.5 9 Este 14 Este 0 -- -- 74
2019-12-05 19:00:00 11.5 6 Este 21 Este 0 -- -- 73
2019-12-05 18:00:00 13 17 Este 30 Este 0 -- -- 66
2019-12-05 17:00:00 13.8 15 Este 30 Este 0 -- -- 61
2019-12-05 16:00:00 14.5 18 Este 32 Este 0 -- -- 60
2019-12-05 15:00:00 14.4 17 Este 28 Este 0 -- -- 63
2019-12-05 14:00:00 13.8 17 Este 29 Este 0 -- -- 65
2019-12-05 13:00:00 13.3 18 Este 25 Este 0 -- -- 66
2019-12-05 12:00:00 12 13 Este 20 Este 0 -- -- 77
2019-12-05 11:00:00 9.9 6 Nordeste 9 Este 0 -- -- 85
2019-12-05 10:00:00 7.6 0 Calma 7 Sudoeste 0 -- -- 94
2019-12-05 09:00:00 6.1 2 Sudeste 9 Nordeste 0 -- -- 95
2019-12-05 08:00:00 6.6 5 Nordeste 12 Nordeste 0 -- -- 94
2019-12-05 07:00:00 6.8 8 Nordeste 10 Nordeste 0 -- -- 93
2019-12-05 06:00:00 7.7 9 Nordeste 13 Nordeste 0 -- -- 92
2019-12-05 05:00:00 7.2 6 Nordeste 9 Nordeste 0 -- -- 92
2019-12-05 04:00:00 7.8 5 Nordeste 10 Nordeste 0 -- -- 92
2019-12-05 03:00:00 8.3 4 Norte 8 Norte 0 -- -- 94
2019-12-05 02:00:00 8.9 5 Norte 9 Norte 0 -- -- 95
2019-12-05 01:00:00 9.5 3 Norte 8 Norte 0 -- -- 92
2019-12-05 00:00:00 9.5 2 Noroeste 6 Nordeste 0 -- -- 93
2019-12-04 23:00:00 9.5 4 Nordeste 12 Nordeste 0 -- -- 93
2019-12-04 22:00:00 9.6 3 Norte 9 Norte 0 -- -- 89
2019-12-04 21:00:00 9.9 5 Norte 8 Norte 0 -- -- 85
2019-12-04 20:00:00 10.2 3 Norte 8 Norte 0 -- -- 83
2019-12-04 19:00:00 10.6 6 Norte 8 Norte 0 -- -- 79
2019-12-04 18:00:00 11 4 Norte 11 Noroeste 0 -- -- 75
2019-12-04 17:00:00 11.7 6 Norte 10 Norte 0 -- -- 71
2019-12-04 16:00:00 11.4 7 Nordeste 12 Nordeste 0 -- -- 74
2019-12-04 15:00:00 11.1 10 Nordeste 15 Norte 0 -- -- 75
2019-12-04 14:00:00 11.4 6 Norte 13 Noroeste 0 -- -- 77
2019-12-04 13:00:00 10.8 5 Norte 10 Norte 0 -- -- 77
2019-12-04 12:00:00 10.5 2 Noroeste 6 Este 0 -- -- 83
2019-12-04 11:00:00 9.2 2 Sur 5 Sur 0 -- -- 89
2019-12-04 10:00:00 7.3 2 Sur 7 Este 0 -- -- 95
2019-12-04 09:00:00 7 5 Este 7 Este 0 -- -- 96
2019-12-04 08:00:00 6.9 4 Oeste 9 Oeste 0 -- -- 95
2019-12-04 07:00:00 7.1 5 Este 12 Este 0 -- -- 94
2019-12-04 06:00:00 7.2 6 Este 9 Este 0 -- -- 95
2019-12-04 05:00:00 7.5 4 Sudeste 10 Este 0 -- -- 94
2019-12-04 04:00:00 7.4 5 Este 11 Este 0 -- -- 95
2019-12-04 03:00:00 7 6 Este 10 Este 0 -- -- 94
2019-12-04 02:00:00 7.5 7 Este 10 Este 0 -- -- 92
2019-12-04 01:00:00 8.4 8 Este 11 Sudeste 0 -- -- 88
2019-12-04 00:00:00 9 6 Este 9 Nordeste 0 -- -- 86
2019-12-03 23:00:00 8.9 5 Nordeste 9 Nordeste 0 -- -- 86
2019-12-03 22:00:00 9 6 Este 9 Este 0 -- -- 83
2019-12-03 21:00:00 10.1 6 Este 11 Este 0 -- -- 81
2019-12-03 20:00:00 10.9 5 Nordeste 16 Sudeste 0 -- -- 79
2019-12-03 19:00:00 11.6 8 Sudeste 15 Este 0 -- -- 75
2019-12-03 18:00:00 12.3 12 Este 19 Este 0 -- -- 71
2019-12-03 17:00:00 13.3 11 Este 22 Este 0 -- -- 68
2019-12-03 16:00:00 13.5 14 Este 26 Este 0 -- -- 68
2019-12-03 15:00:00 13.4 18 Este 26 Este 0 -- -- 68
2019-12-03 14:00:00 12.9 18 Este 27 Este 0 -- -- 70
2019-12-03 13:00:00 12.8 13 Este 24 Este 0 -- -- 71
2019-12-03 12:00:00 11.6 14 Este 28 Este 0 -- -- 73
2019-12-03 11:00:00 10.8 18 Este 28 Este 0 -- -- 73
2019-12-03 10:00:00 9.8 14 Este 27 Este 0 -- -- 75
2019-12-03 09:00:00 8.5 15 Este 24 Este 0 -- -- 78
2019-12-03 08:00:00 8.2 6 Sur 17 Este 0 -- -- 78
2019-12-03 07:00:00 7.1 11 Este 18 Nordeste 0 -- -- 83
2019-12-03 06:00:00 7.2 7 Norte 19 Nordeste 0 -- -- 82
2019-12-03 05:00:00 7.1 11 Este 17 Este 0 -- -- 85
2019-12-03 04:00:00 7.9 9 Este 19 Este 0 -- -- 84
2019-12-03 03:00:00 7.5 4 Nordeste 13 Este 0 -- -- 86
2019-12-03 02:00:00 8.8 2 Este 19 Este 0 -- -- 82
2019-12-03 01:00:00 9.2 12 Este 24 Este 0 -- -- 81
2019-12-03 00:00:00 9.7 14 Este 31 Este 0 -- -- 80
2019-12-02 23:00:00 10 20 Este 35 Este 0 -- -- 78
2019-12-02 22:00:00 10.3 20 Este 31 Este 0 -- -- 77
2019-12-02 21:00:00 10.4 16 Este 38 Este 0 -- -- 78
2019-12-02 20:00:00 10.8 23 Este 35 Este 0 -- -- 76
2019-12-02 19:00:00 11 19 Este 40 Este 0 -- -- 76
2019-12-02 18:00:00 11.4 27 Este 44 Este 0 -- -- 73
2019-12-02 17:00:00 11.9 24 Este 41 Este 0 -- -- 71
2019-12-02 16:00:00 12.6 24 Este 41 Este 0 -- -- 70
2019-12-02 15:00:00 12.3 29 Este 46 Este 0 -- -- 73
2019-12-02 14:00:00 11.8 23 Este 41 Este 0 -- -- 78
2019-12-02 13:00:00 11.5 22 Este 39 Este 0 -- -- 78
2019-12-02 12:00:00 10.4 22 Este 35 Este 0 -- -- 82
2019-12-02 11:00:00 10.5 25 Este 35 Este 0 -- -- 82
2019-12-02 10:00:00 9.6 17 Este 29 Este 0 -- -- 87
2019-12-02 09:00:00 8.6 13 Este 22 Este 0 -- -- 95
2019-12-02 08:00:00 8.2 14 Este 24 Este 0 -- -- 95
2019-12-02 07:00:00 7.6 9 Este 20 Nordeste 0 -- -- 97
2019-12-02 06:00:00 7.6 14 Nordeste 21 Nordeste 0 -- -- 97
2019-12-02 05:00:00 7.3 8 Nordeste 19 Nordeste 0 -- -- 98
2019-12-02 04:00:00 7.4 9 Nordeste 15 Nordeste 0 -- -- 98
2019-12-02 03:00:00 7.8 9 Nordeste 15 Nordeste 0 -- -- 99
2019-12-02 02:00:00 7.6 9 Nordeste 13 Nordeste 0 -- -- 99
2019-12-02 01:00:00 7.8 7 Nordeste 17 Norte 0 -- -- 98
2019-12-02 00:00:00 8.6 7 Nordeste 15 Nordeste 0 -- -- 97
2019-12-01 23:00:00 8.9 4 Este 14 Este 0 -- -- 97
2019-12-01 22:00:00 9.4 7 Este 14 Este 0 -- -- 98
2019-12-01 21:00:00 9.7 7 Sudeste 12 Este 0.2 -- -- 98
2019-12-01 20:00:00 9.9 4 Este 13 Este 1 -- -- 97
2019-12-01 19:00:00 10.3 3 Este 7 Este 0.2 -- -- 94
2019-12-01 18:00:00 10.3 3 Oeste 24 Oeste 3.2 -- -- 91
2019-12-01 17:00:00 11.8 5 Noroeste 34 Oeste 0.2 -- -- 88
2019-12-01 16:00:00 12.6 18 Oeste 31 Oeste 0 -- -- 78
2019-12-01 15:00:00 13.2 9 Noroeste 31 Oeste 0 -- -- 79
2019-12-01 14:00:00 13.4 16 Noroeste 31 Oeste 0 -- -- 81
2019-12-01 13:00:00 12.3 12 Noroeste 28 Noroeste 0.2 -- -- 89
2019-12-01 12:00:00 11.4 14 Noroeste 25 Oeste 2.8 -- -- 93
2019-12-01 11:00:00 11.3 13 Oeste 26 Oeste 0.4 -- -- 90
2019-12-01 10:00:00 11.2 19 Oeste 29 Oeste 0 -- -- 89
2019-12-01 09:00:00 10.1 18 Oeste 25 Oeste 0 -- -- 93
2019-12-01 08:00:00 10.1 12 Oeste 26 Oeste 0 -- -- 91
2019-12-01 07:00:00 9.7 14 Sudoeste 20 Sudoeste 0 -- -- 94
2019-12-01 06:00:00 8.8 15 Sudoeste 19 Sudoeste 0 -- -- 94
2019-12-01 05:00:00 8.2 12 Sudoeste 16 Oeste 0 -- -- 94
2019-12-01 04:00:00 8.2 12 Oeste 17 Oeste 0 -- -- 96
2019-12-01 03:00:00 8.3 9 Sudoeste 13 Sudoeste 0.2 -- -- 96
2019-12-01 02:00:00 9.3 8 Oeste 17 Oeste 0 -- -- 96
2019-12-01 01:00:00 10.1 9 Noroeste 19 Noroeste 0 -- -- 96
2019-12-01 00:00:00 10.7 12 Noroeste 22 Oeste 0 -- -- 95
2019-11-30 23:00:00 11.3 11 Oeste 18 Oeste 0 -- -- 95
2019-11-30 22:00:00 11.9 8 Noroeste 18 Noroeste 0 -- -- 94
2019-11-30 21:00:00 12.2 10 Noroeste 37 Noroeste 0.2 -- -- 96
2019-11-30 20:00:00 12.8 24 Norte 42 Norte 0.8 -- -- 93
2019-11-30 19:00:00 14.6 20 Oeste 31 Oeste 0 -- -- 82
2019-11-30 18:00:00 15.4 21 Oeste 29 Oeste 0 -- -- 76
2019-11-30 17:00:00 15.7 19 Oeste 29 Oeste 0 -- -- 76
2019-11-30 16:00:00 15.8 20 Oeste 29 Sudoeste 0 -- -- 73
2019-11-30 15:00:00 16 20 Sudoeste 29 Oeste 0 -- -- 74
2019-11-30 14:00:00 15.7 19 Oeste 32 Oeste 0 -- -- 72
2019-11-30 13:00:00 15.7 19 Oeste 28 Oeste 0 -- -- 72
2019-11-30 12:00:00 15.4 15 Oeste 22 Oeste 0 -- -- 76
2019-11-30 11:00:00 14.2 13 Oeste 18 Oeste 0 -- -- 80
2019-11-30 10:00:00 12.5 9 Sudoeste 13 Sudoeste 0 -- -- 92
2019-11-30 09:00:00 11 7 Sudoeste 10 Sudoeste 0 -- -- 95
2019-11-30 08:00:00 10.4 7 Sudoeste 9 Sur 0 -- -- 95
2019-11-30 07:00:00 10.4 5 Sudoeste 12 Sudoeste 0 -- -- 94
2019-11-30 06:00:00 11.2 9 Sudoeste 12 Sudoeste 0 -- -- 93
2019-11-30 05:00:00 12.3 3 Oeste 8 Oeste 0 -- -- 91
2019-11-30 04:00:00 12.5 4 Noroeste 8 Noroeste 0 -- -- 90
2019-11-30 03:00:00 12.7 8 Noroeste 10 Oeste 0 -- -- 89
2019-11-30 02:00:00 12.6 8 Oeste 10 Oeste 0 -- -- 88
2019-11-30 01:00:00 12.5 7 Oeste 10 Oeste 0 -- -- 89
2019-11-30 00:00:00 12.3 6 Oeste 8 Oeste 0 -- -- 89
2019-11-29 23:00:00 12 5 Oeste 8 Oeste 0 -- -- 87
2019-11-29 22:00:00 13.2 3 Oeste 5 Oeste 0 -- -- 83
2019-11-29 21:00:00 13 6 Oeste 8 Sudoeste 0 -- -- 85
2019-11-29 20:00:00 14.5 3 Noroeste 6 Noroeste 0 -- -- 79
2019-11-29 19:00:00 15.1 2 Oeste 8 Noroeste 0 -- -- 77
2019-11-29 18:00:00 16.1 4 Noroeste 10 Noroeste 0 -- -- 73
2019-11-29 17:00:00 16.7 6 Oeste 10 Noroeste 0 -- -- 72
2019-11-29 16:00:00 16.8 7 Noroeste 21 Noroeste 0 -- -- 69
2019-11-29 15:00:00 17.2 9 Noroeste 26 Noroeste 0 -- -- 68
2019-11-29 14:00:00 17.7 12 Noroeste 21 Noroeste 0 -- -- 66
2019-11-29 13:00:00 17.5 9 Noroeste 23 Noroeste 0 -- -- 67
2019-11-29 12:00:00 17 14 Oeste 23 Oeste 0 -- -- 74
2019-11-29 11:00:00 15.1 11 Oeste 18 Oeste 0 -- -- 82
2019-11-29 10:00:00 13.7 5 Sudoeste 12 Sudoeste 0 -- -- 89
2019-11-29 09:00:00 12.5 9 Sudoeste 13 Sudoeste 0 -- -- 93
2019-11-29 08:00:00 12.4 9 Sudoeste 14 Sudoeste 0 -- -- 92
2019-11-29 07:00:00 12.8 11 Sudoeste 16 Sudoeste 0 -- -- 90
2019-11-29 06:00:00 12.7 10 Sudoeste 19 Oeste 0 -- -- 90
2019-11-29 05:00:00 12.7 13 Oeste 18 Oeste 0 -- -- 90
2019-11-29 04:00:00 12.7 12 Sudoeste 24 Sudoeste 0 -- -- 90
2019-11-29 03:00:00 12.4 15 Sudoeste 22 Sudoeste 0 -- -- 91
2019-11-29 02:00:00 12.2 18 Oeste 23 Sudoeste 0 -- -- 90
2019-11-29 01:00:00 12.3 14 Sudoeste 20 Sudoeste 0 -- -- 91
2019-11-29 00:00:00 11.3 8 Sudoeste 17 Sudoeste 0 -- -- 90
2019-11-28 23:00:00 12.1 10 Oeste 13 Sudoeste 0 -- -- 89
2019-11-28 22:00:00 12.2 8 Oeste 12 Oeste 0 -- -- 86
2019-11-28 21:00:00 12.6 9 Oeste 13 Oeste 0 -- -- 85
2019-11-28 20:00:00 13.6 12 Oeste 15 Oeste 0 -- -- 81
2019-11-28 19:00:00 14.7 12 Oeste 15 Oeste 0 -- -- 79
2019-11-28 18:00:00 15.2 9 Noroeste 22 Oeste 0 -- -- 75
2019-11-28 17:00:00 15.7 11 Noroeste 25 Oeste 0 -- -- 73
2019-11-28 16:00:00 16.1 18 Oeste 25 Oeste 0 -- -- 66
2019-11-28 15:00:00 16.2 18 Oeste 28 Noroeste 0 -- -- 69
2019-11-28 14:00:00 15.8 17 Oeste 28 Oeste 0 -- -- 73
2019-11-28 13:00:00 15.8 17 Oeste 27 Oeste 0 -- -- 75
2019-11-28 12:00:00 14.6 18 Oeste 24 Oeste 0 -- -- 80
2019-11-28 11:00:00 13.9 17 Sudoeste 23 Sudoeste 0 -- -- 84
2019-11-28 10:00:00 12.4 12 Sudoeste 18 Sudoeste 0 -- -- 92
2019-11-28 09:00:00 11 10 Sudoeste 14 Sudoeste 0 -- -- 94
2019-11-28 08:00:00 11.1 8 Oeste 13 Oeste 0 -- -- 93
2019-11-28 07:00:00 10.5 9 Sudoeste 12 Sudoeste 0 -- -- 96
2019-11-28 06:00:00 10 4 Sudoeste 13 Oeste 0 -- -- 95
2019-11-28 05:00:00 9.8 6 Oeste 11 Oeste 0 -- -- 98
2019-11-28 04:00:00 8.7 7 Oeste 12 Oeste 0 -- -- 96
2019-11-28 03:00:00 9.4 9 Oeste 13 Oeste 0 -- -- 95
2019-11-28 02:00:00 9.4 5 Oeste 9 Oeste 0 -- -- 93
2019-11-28 01:00:00 9.7 8 Oeste 10 Oeste 0 -- -- 92
2019-11-28 00:00:00 10.4 10 Oeste 17 Oeste 0 -- -- 90
2019-11-27 23:00:00 10.7 13 Oeste 16 Oeste 0 -- -- 89
2019-11-27 22:00:00 11.2 12 Oeste 21 Oeste 0 -- -- 87
2019-11-27 21:00:00 11.9 8 Oeste 16 Noroeste 0 -- -- 84
2019-11-27 20:00:00 13.3 9 Noroeste 21 Oeste 0 -- -- 79
2019-11-27 19:00:00 13.6 11 Oeste 16 Noroeste 0 -- -- 77
2019-11-27 18:00:00 14.2 6 Noroeste 16 Noroeste 0 -- -- 76
2019-11-27 17:00:00 14.5 14 Noroeste 25 Noroeste 0 -- -- 72
2019-11-27 16:00:00 14.7 11 Noroeste 27 Noroeste 0 -- -- 73
2019-11-27 15:00:00 15.4 18 Noroeste 27 Noroeste 0 -- -- 68
2019-11-27 14:00:00 14.6 21 Noroeste 29 Noroeste 0 -- -- 72
2019-11-27 06:00:00 -- -- -- -- -- -- -- -- --
2019-11-27 05:00:00 -- -- -- -- -- -- -- -- --
2019-11-27 04:00:00 -- -- -- -- -- -- -- -- --
2019-11-27 03:00:00 12.5 19 Noroeste 34 Oeste 0.6 -- -- 95
2019-11-27 02:00:00 13 15 Oeste 22 Oeste 0 -- -- 95
2019-11-27 01:00:00 12.4 9 Sudoeste 22 Oeste 0 -- -- 91
2019-11-27 00:00:00 13.1 17 Oeste 30 Oeste 0 -- -- 89
2019-11-26 23:00:00 13.8 15 Noroeste 37 Oeste 0 -- -- 91
2019-11-26 22:00:00 14.2 16 Oeste 29 Oeste 0 -- -- 91
2019-11-26 21:00:00 14.4 17 Oeste 32 Oeste 0.6 -- -- 96
2019-11-26 20:00:00 14.5 23 Oeste 35 Oeste 0.4 -- -- 94
2019-11-26 19:00:00 15.3 23 Oeste 35 Oeste 0.6 -- -- 89
2019-11-26 18:00:00 16.6 26 Oeste 44 Oeste 0 -- -- 80
2019-11-26 17:00:00 17.5 24 Oeste 39 Oeste 0 -- -- 74
2019-11-26 16:00:00 17.6 28 Oeste 43 Oeste 0 -- -- 72
2019-11-26 15:00:00 17.5 26 Oeste 40 Oeste 0 -- -- 75
2019-11-26 14:00:00 17.3 32 Oeste 46 Oeste 0 -- -- 75
2019-11-26 13:00:00 17.1 28 Oeste 38 Oeste 0 -- -- 83
2019-11-26 12:00:00 16.7 20 Oeste 27 Oeste 0 -- -- 83
2019-11-26 11:00:00 15.3 14 Sudoeste 22 Sudoeste 0 -- -- 95
2019-11-26 10:00:00 14.5 16 Sudoeste 22 Sudoeste 0 -- -- 96
2019-11-26 09:00:00 14 16 Sudoeste 24 Sudoeste 0 -- -- 96
2019-11-26 08:00:00 13.7 14 Sudoeste 22 Oeste 0 -- -- 95
2019-11-26 07:00:00 13.4 10 Sudoeste 16 Sudoeste 0 -- -- 94
2019-11-26 06:00:00 13 11 Sudoeste 17 Sudoeste 0 -- -- 93
2019-11-26 05:00:00 12.5 10 Sudoeste 15 Sudoeste 0 -- -- 95
2019-11-26 04:00:00 12.3 10 Sudoeste 14 Sudoeste 0 -- -- 94
2019-11-26 03:00:00 11.9 10 Sudoeste 17 Sudoeste 0 -- -- 94
2019-11-26 02:00:00 11.6 10 Sudoeste 16 Oeste 0 -- -- 95
2019-11-26 01:00:00 11.9 11 Oeste 15 Oeste 0 -- -- 95
2019-11-26 00:00:00 12.7 12 Oeste 17 Oeste 0 -- -- 94
2019-11-25 23:00:00 13.5 11 Oeste 18 Oeste 0 -- -- 91
2019-11-25 22:00:00 14 9 Noroeste 16 Oeste 0 -- -- 89
2019-11-25 21:00:00 14.1 5 Oeste 8 Oeste 0 -- -- 88
2019-11-25 20:00:00 14.8 3 Noroeste 12 Noroeste 0 -- -- 86
2019-11-25 19:00:00 15.2 3 Noroeste 10 Noroeste 0 -- -- 85
2019-11-25 18:00:00 16.1 5 Noroeste 20 Noroeste 0 -- -- 81
2019-11-25 17:00:00 16.9 14 Noroeste 24 Noroeste 0 -- -- 78
2019-11-25 16:00:00 17.3 18 Noroeste 31 Noroeste 0 -- -- 78
2019-11-25 15:00:00 18 14 Noroeste 31 Noroeste 0 -- -- 75
2019-11-25 14:00:00 17.1 14 Noroeste 28 Oeste 0 -- -- 77
2019-11-25 13:00:00 16.8 16 Noroeste 33 Noroeste 0 -- -- 84
2019-11-25 12:00:00 15.7 12 Noroeste 27 Noroeste 0 -- -- 94
2019-11-25 11:00:00 14.8 14 Noroeste 23 Noroeste 0.4 -- -- 97
2019-11-25 10:00:00 15 14 Oeste 33 Oeste 0.2 -- -- 96
2019-11-25 09:00:00 15.1 22 Oeste 35 Oeste 0 -- -- 94
2019-11-25 08:00:00 14.4 17 Oeste 28 Oeste 0 -- -- 95
2019-11-25 07:00:00 14.5 19 Oeste 33 Oeste 0.2 -- -- 93
2019-11-25 06:00:00 13.9 16 Oeste 31 Oeste 0 -- -- 93
2019-11-25 05:00:00 13.9 22 Oeste 30 Oeste 0 -- -- 93
2019-11-25 04:00:00 13.4 19 Oeste 32 Oeste 0 -- -- 93
2019-11-25 03:00:00 12.5 16 Oeste 26 Sudoeste 0 -- -- 94
2019-11-25 02:00:00 11.8 21 Sudoeste 31 Sudoeste 0.2 -- -- 94
2019-11-25 01:00:00 11.6 22 Sudoeste 35 Sudoeste 0.4 -- -- 94
2019-11-25 00:00:00 12.2 21 Sudoeste 29 Sudoeste 0 -- -- 88
2019-11-24 23:00:00 11.9 17 Oeste 23 Oeste 0 -- -- 89
2019-11-24 22:00:00 11.4 13 Sudoeste 19 Sudoeste 0 -- -- 89
2019-11-24 21:00:00 11.7 10 Sudoeste 15 Oeste 0 -- -- 87
2019-11-24 20:00:00 12.2 7 Oeste 12 Oeste 0 -- -- 83
2019-11-24 19:00:00 12.5 11 Oeste 18 Oeste 0 -- -- 80
2019-11-24 18:00:00 12.9 12 Oeste 21 Noroeste 0 -- -- 77
2019-11-24 17:00:00 13.2 11 Noroeste 25 Noroeste 0 -- -- 73
2019-11-24 16:00:00 13.6 15 Noroeste 25 Noroeste 0 -- -- 71
2019-11-24 15:00:00 13.8 17 Noroeste 26 Noroeste 0 -- -- 72
2019-11-24 14:00:00 13 14 Noroeste 22 Noroeste 0 -- -- 78
2019-11-24 13:00:00 12.9 11 Noroeste 23 Noroeste 0 -- -- 79
2019-11-24 12:00:00 12.3 10 Noroeste 18 Noroeste 0 -- -- 81
2019-11-24 11:00:00 10.4 8 Noroeste 16 Oeste 0 -- -- 91
2019-11-24 10:00:00 8.6 9 Oeste 13 Oeste 0 -- -- 97
2019-11-24 09:00:00 6.9 6 Oeste 12 Oeste 0 -- -- 99
2019-11-24 08:00:00 6.2 6 Noroeste 10 Noroeste 0 -- -- 98
2019-11-24 07:00:00 6.2 4 Noroeste 14 Noroeste 0 -- -- 98
2019-11-24 06:00:00 6.1 7 Noroeste 12 Noroeste 0 -- -- 97
2019-11-24 05:00:00 6.2 5 Noroeste 10 Noroeste 0 -- -- 97
2019-11-24 04:00:00 6.3 3 Noroeste 10 Noroeste 0 -- -- 96
2019-11-24 03:00:00 6.8 6 Noroeste 12 Oeste 0 -- -- 95
2019-11-24 02:00:00 7 7 Oeste 16 Noroeste 0 -- -- 92
2019-11-24 01:00:00 7.5 6 Noroeste 17 Noroeste 0 -- -- 91
2019-11-24 00:00:00 7.8 7 Noroeste 23 Noroeste 0 -- -- 90
2019-11-23 23:00:00 8.1 14 Noroeste 24 Noroeste 0 -- -- 87
2019-11-23 22:00:00 8.6 12 Noroeste 20 Noroeste 0 -- -- 87
2019-11-23 21:00:00 9 10 Noroeste 22 Noroeste 0 -- -- 87
2019-11-23 20:00:00 9.3 10 Noroeste 22 Noroeste 0 -- -- 85
2019-11-23 19:00:00 10.2 13 Noroeste 26 Noroeste 0 -- -- 81
2019-11-23 18:00:00 11.6 21 Noroeste 38 Norte 0 -- -- 71
2019-11-23 17:00:00 12.8 24 Noroeste 41 Norte 0 -- -- 65
2019-11-23 16:00:00 12.5 20 Noroeste 40 Noroeste 0 -- -- 71
2019-11-23 15:00:00 13 24 Noroeste 41 Norte 0 -- -- 69
2019-11-23 14:00:00 12.6 23 Noroeste 40 Norte 0 -- -- 70
2019-11-23 13:00:00 12.3 26 Noroeste 43 Noroeste 0 -- -- 72
2019-11-23 12:00:00 11.7 26 Noroeste 39 Noroeste 0 -- -- 77
2019-11-23 11:00:00 10.7 29 Noroeste 43 Noroeste 0 -- -- 82
2019-11-23 10:00:00 9.7 21 Noroeste 37 Noroeste 0 -- -- 88
2019-11-23 09:00:00 8.8 20 Noroeste 34 Noroeste 0 -- -- 90
2019-11-23 08:00:00 8.9 21 Noroeste 37 Noroeste 0 -- -- 91
2019-11-23 07:00:00 8.9 16 Noroeste 36 Noroeste 0 -- -- 91
2019-11-23 06:00:00 9.2 19 Noroeste 36 Noroeste 0 -- -- 89
2019-11-23 05:00:00 9.5 22 Noroeste 43 Noroeste 0 -- -- 91
2019-11-23 04:00:00 9.8 21 Noroeste 40 Noroeste 0 -- -- 89
2019-11-23 03:00:00 10.5 27 Noroeste 48 Noroeste 0 -- -- 87
2019-11-23 02:00:00 10.9 34 Noroeste 49 Noroeste 0 -- -- 87
2019-11-23 01:00:00 10.5 37 Noroeste 82 Noroeste 1.2 -- -- 91
2019-11-23 00:00:00 11.6 28 Noroeste 56 Noroeste 0 -- -- 83
2019-11-22 23:00:00 11.7 28 Oeste 41 Oeste 0 -- -- 85
2019-11-22 22:00:00 11.4 20 Noroeste 49 Noroeste 0 -- -- 85
2019-11-22 21:00:00 11.8 28 Noroeste 47 Noroeste 0.2 -- -- 91
2019-11-22 20:00:00 12.5 21 Noroeste 49 Oeste 0 -- -- 84
2019-11-22 19:00:00 13.2 27 Oeste 44 Oeste 0 -- -- 78
2019-11-22 18:00:00 14.1 24 Noroeste 42 Noroeste 0 -- -- 83
2019-11-22 17:00:00 14.9 24 Noroeste 49 Noroeste 0 -- -- 77
2019-11-22 16:00:00 14.9 26 Noroeste 48 Noroeste 0 -- -- 93
2019-11-22 15:00:00 13.5 18 Noroeste 48 Norte 9.6 -- -- 98
2019-11-22 14:00:00 15.1 33 Oeste 51 Oeste 0.4 -- -- 92
2019-11-22 13:00:00 14 32 Sudoeste 62 Sudoeste 0.8 -- -- 94
2019-11-22 12:00:00 14.4 43 Oeste 69 Oeste 0.2 -- -- 89
2019-11-22 11:00:00 13.4 31 Oeste 46 Oeste 2.4 -- -- 95
2019-11-22 10:00:00 13 29 Sudoeste 45 Sudoeste 1.8 -- -- 93
2019-11-22 09:00:00 12.4 25 Sudoeste 41 Sudoeste 1 -- -- 92
2019-11-22 08:00:00 11.6 19 Sudoeste 30 Sudoeste 0 -- -- 92
2019-11-22 07:00:00 11.2 16 Sudoeste 28 Sudoeste 0 -- -- 90
2019-11-22 06:00:00 10.4 14 Sudoeste 19 Sudoeste 0 -- -- 96
2019-11-22 05:00:00 10.3 11 Sudoeste 16 Sudoeste 0.4 -- -- 96
2019-11-22 04:00:00 10.4 12 Sudoeste 15 Sudoeste 0.2 -- -- 96
2019-11-22 03:00:00 9.8 9 Sudoeste 14 Sudoeste 0 -- -- 97
2019-11-22 02:00:00 9.7 9 Sudoeste 19 Sudoeste 0 -- -- 96
2019-11-22 01:00:00 9.4 13 Sudoeste 18 Sudoeste 0 -- -- 98
2019-11-22 00:00:00 9.5 12 Sudoeste 17 Sudoeste 0 -- -- 97
2019-11-21 23:00:00 9.8 12 Sudoeste 16 Oeste 0 -- -- 95
2019-11-21 22:00:00 10.8 11 Sudoeste 18 Sudoeste 0 -- -- 95
2019-11-21 21:00:00 10 8 Sudoeste 12 Sudoeste 0 -- -- 97
2019-11-21 20:00:00 10.6 9 Sudoeste 11 Sudoeste 0 -- -- 97
2019-11-21 19:00:00 11.2 3 Sur 4 Sur 0 -- -- 97
2019-11-21 18:00:00 11.7 3 Sudeste 6 Sudeste 0 -- -- 95
2019-11-21 17:00:00 12 2 Este 9 Nordeste 0.2 -- -- 94
2019-11-21 16:00:00 12.8 3 Nordeste 8 Sudoeste 0.8 -- -- 91
2019-11-21 15:00:00 12.6 4 Sudoeste 13 Sudoeste 0.6 -- -- 91
2019-11-21 14:00:00 12.9 8 Sudoeste 12 Sudoeste 0 -- -- 89
2019-11-21 13:00:00 12.3 6 Sudoeste 13 Sudoeste 0.2 -- -- 92
2019-11-21 12:00:00 11.8 10 Sudoeste 14 Sudoeste 0 -- -- 93
2019-11-21 11:00:00 10.9 6 Oeste 18 Oeste 0.2 -- -- 94
2019-11-21 10:00:00 10.3 11 Oeste 22 Oeste 1.4 -- -- 97
2019-11-21 09:00:00 10.2 13 Oeste 19 Sudoeste 2.4 -- -- 97
2019-11-21 08:00:00 9.8 13 Sudoeste 19 Sudoeste 0.2 -- -- 96
2019-11-21 07:00:00 9.5 11 Sudoeste 14 Sudoeste 0 -- -- 96
2019-11-21 06:00:00 10 12 Sudoeste 18 Oeste 0 -- -- 94
2019-11-21 05:00:00 9.2 10 Sudoeste 15 Sudoeste 0 -- -- 95
2019-11-21 04:00:00 9.8 12 Sudoeste 19 Sudoeste 0 -- -- 94
2019-11-21 03:00:00 9.4 13 Sudoeste 21 Oeste 0 -- -- 95
2019-11-21 02:00:00 9.4 15 Oeste 21 Sudoeste 0 -- -- 95
2019-11-21 01:00:00 9.3 12 Sudoeste 23 Sudoeste 0 -- -- 95
2019-11-21 00:00:00 8.5 10 Sudoeste 14 Sudoeste 0 -- -- 97
2019-11-20 23:00:00 8.6 9 Sur 14 Sudoeste 0 -- -- 96
2019-11-20 22:00:00 9 8 Sudoeste 13 Sudoeste 0.6 -- -- 95
2019-11-20 21:00:00 9.8 6 Oeste 10 Oeste 1.6 -- -- 94
2019-11-20 20:00:00 10.6 5 Noroeste 15 Noroeste 3.6 -- -- 91
2019-11-20 19:00:00 11.3 0 Calma 7 Oeste 0 -- -- 84
2019-11-20 18:00:00 12 4 Noroeste 20 Noroeste 0 -- -- 78
2019-11-20 17:00:00 12.7 9 Noroeste 28 Oeste 0 -- -- 76
2019-11-20 16:00:00 12.3 14 Oeste 26 Sudoeste 0 -- -- 84
2019-11-20 15:00:00 11.3 17 Sudoeste 32 Sudoeste 0 -- -- 87
2019-11-20 14:00:00 11.1 22 Sudoeste 37 Sudoeste 0 -- -- 87
2019-11-20 13:00:00 9.1 18 Sudoeste 34 Sudoeste 0.4 -- -- 93
2019-11-20 12:00:00 7.8 20 Sur 32 Sudoeste 0.6 -- -- 93
2019-11-20 11:00:00 7.2 19 Sudoeste 36 Sur 0.4 -- -- 93
2019-11-20 10:00:00 6.9 17 Sur 25 Sur 1.4 -- -- 97
2019-11-20 09:00:00 6.6 8 Sudeste 13 Sudeste 3.2 -- -- 97
2019-11-20 08:00:00 6.7 5 Sudeste 14 Sur 2.8 -- -- 95
2019-11-20 07:00:00 7.1 10 Sur 15 Sur 0.8 -- -- 91
2019-11-20 06:00:00 7.5 11 Sur 17 Sur 0 -- -- 86
2019-11-20 05:00:00 7.2 12 Sur 18 Sur 0 -- -- 86
2019-11-20 04:00:00 6.1 13 Sudoeste 18 Sudoeste 0 -- -- 89
2019-11-20 03:00:00 5.1 10 Sur 15 Sur 0 -- -- 92
2019-11-20 02:00:00 5.4 11 Sur 18 Sudoeste 0 -- -- 91
2019-11-20 01:00:00 5.7 12 Sudoeste 15 Sudoeste 0 -- -- 92
2019-11-20 00:00:00 5.8 10 Sudoeste 13 Sur 0 -- -- 92
2019-11-19 23:00:00 5.8 9 Sur 12 Sudoeste 0 -- -- 94
2019-11-19 22:00:00 6.5 7 Sur 9 Sur 0 -- -- 92
2019-11-19 21:00:00 7.5 2 Sudeste 3 Sudeste 0 -- -- 88
2019-11-19 20:00:00 8.2 3 Nordeste 6 Este 0 -- -- 87
2019-11-19 19:00:00 8.9 5 Nordeste 7 Nordeste 0 -- -- 85
2019-11-19 18:00:00 10.6 5 Nordeste 12 Nordeste 0 -- -- 77
2019-11-19 17:00:00 11.5 8 Nordeste 12 Nordeste 0 -- -- 73
2019-11-19 16:00:00 12 5 Este 10 Nordeste 0 -- -- 72
2019-11-19 15:00:00 11.8 5 Este 10 Nordeste 0 -- -- 72
2019-11-19 14:00:00 11.6 5 Nordeste 10 Nordeste 0 -- -- 74
2019-11-19 13:00:00 11.2 3 Norte 6 Noroeste 0 -- -- 76
2019-11-19 12:00:00 8.9 3 Este 5 Sudeste 0 -- -- 86
2019-11-19 11:00:00 7 3 Sur 7 Sudeste 0 -- -- 89
2019-11-19 10:00:00 5.1 4 Sudeste 10 Sur 0 -- -- 92
2019-11-19 09:00:00 4.4 9 Sur 11 Sur 0 -- -- 94
2019-11-19 08:00:00 3.4 7 Sudoeste 11 Sur 0 -- -- 95
2019-11-19 07:00:00 4.2 5 Sudoeste 11 Sudoeste 0 -- -- 95
2019-11-19 06:00:00 3.8 9 Sudoeste 12 Sur 0 -- -- 93
2019-11-19 05:00:00 4.8 3 Sudoeste 9 Noroeste 0 -- -- 89
2019-11-19 04:00:00 6 7 Noroeste 10 Noroeste 0 -- -- 88
2019-11-19 03:00:00 5.4 4 Noroeste 11 Oeste 0 -- -- 90
2019-11-19 02:00:00 5.2 6 Oeste 10 Oeste 0 -- -- 90
2019-11-19 01:00:00 5.7 7 Oeste 12 Oeste 0 -- -- 89
2019-11-19 00:00:00 5.8 9 Oeste 12 Oeste 0 -- -- 86
2019-11-18 23:00:00 6.4 9 Oeste 13 Oeste 0 -- -- 83
2019-11-18 22:00:00 7.4 8 Oeste 10 Oeste 0 -- -- 78
2019-11-18 21:00:00 9 7 Norte 10 Norte 0 -- -- 71
2019-11-18 20:00:00 9.6 4 Noroeste 11 Norte 0 -- -- 71
2019-11-18 19:00:00 10.6 6 Noroeste 9 Norte 0 -- -- 69
2019-11-18 18:00:00 12.1 7 Norte 18 Norte 0 -- -- 65
2019-11-18 17:00:00 13 10 Norte 21 Norte 0 -- -- 58
2019-11-18 16:00:00 12.7 9 Norte 20 Norte 0 -- -- 63
2019-11-18 15:00:00 12.4 10 Noroeste 19 Norte 0 -- -- 67
2019-11-18 14:00:00 11.7 9 Norte 19 Norte 0 -- -- 70
2019-11-18 13:00:00 10.5 8 Norte 17 Norte 0 -- -- 75
2019-11-18 12:00:00 9.3 9 Norte 18 Norte 0 -- -- 77
2019-11-18 11:00:00 8.3 13 Noroeste 21 Noroeste 0 -- -- 86
2019-11-18 10:00:00 6.8 12 Noroeste 20 Noroeste 0 -- -- 92
2019-11-18 09:00:00 5 10 Noroeste 18 Noroeste 0 -- -- 97
2019-11-18 08:00:00 4.4 9 Noroeste 14 Noroeste 0 -- -- 96
2019-11-18 07:00:00 4.8 11 Noroeste 25 Noroeste 0 -- -- 94
2019-11-18 06:00:00 5 18 Noroeste 23 Noroeste 0 -- -- 95
2019-11-18 05:00:00 5.5 12 Noroeste 21 Noroeste 0 -- -- 94
2019-11-18 04:00:00 6.3 16 Noroeste 23 Noroeste 0 -- -- 94
2019-11-18 03:00:00 7.1 15 Noroeste 24 Norte 0 -- -- 93
2019-11-18 02:00:00 8.7 17 Noroeste 32 Norte 0 -- -- 88
2019-11-18 01:00:00 10.3 18 Norte 34 Norte 0 -- -- 94
2019-11-18 00:00:00 11.5 20 Noroeste 36 Noroeste 0.2 -- -- 97
2019-11-17 23:00:00 11.9 21 Noroeste 42 Noroeste 0.8 -- -- 97
2019-11-17 22:00:00 12.2 13 Noroeste 35 Noroeste 0 -- -- 95
2019-11-17 21:00:00 12.2 19 Noroeste 34 Noroeste 0 -- -- 95
2019-11-17 20:00:00 12.4 23 Noroeste 38 Oeste 0.2 -- -- 95
2019-11-17 19:00:00 12.5 15 Noroeste 38 Oeste 0.8 -- -- 95
2019-11-17 18:00:00 13.1 22 Noroeste 41 Oeste 2.8 -- -- 95
2019-11-17 17:00:00 14.1 19 Noroeste 37 Noroeste 0 -- -- 90
2019-11-17 16:00:00 14.4 17 Noroeste 35 Oeste 0 -- -- 88
2019-11-17 15:00:00 13.7 21 Noroeste 35 Noroeste 0 -- -- 94
2019-11-17 14:00:00 13 17 Noroeste 40 Oeste 0.2 -- -- 95
2019-11-17 13:00:00 12.4 21 Noroeste 39 Noroeste 0.2 -- -- 96
2019-11-17 12:00:00 12.2 24 Noroeste 40 Noroeste 0.4 -- -- 94
2019-11-17 11:00:00 11.6 24 Oeste 40 Oeste 0.2 -- -- 96
2019-11-17 10:00:00 9.4 13 Oeste 22 Oeste 0 -- -- 98
2019-11-17 09:00:00 7.5 4 Sudoeste 12 Sudoeste 0.6 -- -- 97
2019-11-17 08:00:00 6.9 9 Sur 13 Sur 0 -- -- 96
2019-11-17 07:00:00 6.4 8 Sudoeste 13 Sur 0.2 -- -- 95
2019-11-17 06:00:00 7.1 5 Oeste 15 Oeste 0.8 -- -- 93
2019-11-17 05:00:00 7.5 8 Noroeste 21 Noroeste 0 -- -- 80
2019-11-17 04:00:00 7.2 10 Oeste 15 Oeste 0 -- -- 75
2019-11-17 03:00:00 6.7 6 Noroeste 15 Oeste 0 -- -- 76
2019-11-17 02:00:00 6.3 9 Noroeste 14 Noroeste 0 -- -- 78
2019-11-17 01:00:00 5.8 8 Oeste 15 Noroeste 0 -- -- 78
2019-11-17 00:00:00 5.8 8 Noroeste 15 Oeste 0 -- -- 75
2019-11-16 23:00:00 6.6 12 Noroeste 17 Noroeste 0 -- -- 72
2019-11-16 22:00:00 7.3 9 Noroeste 17 Noroeste 0 -- -- 69
2019-11-16 21:00:00 6.6 9 Oeste 12 Oeste 0 -- -- 67
2019-11-16 20:00:00 8.5 6 Noroeste 14 Noroeste 0 -- -- 60
2019-11-16 19:00:00 9.6 7 Noroeste 25 Noroeste 0 -- -- 55
2019-11-16 18:00:00 11.7 15 Noroeste 28 Noroeste 0 -- -- 50
2019-11-16 17:00:00 12.4 14 Noroeste 26 Noroeste 0 -- -- 46
2019-11-16 16:00:00 12.4 13 Noroeste 25 Noroeste 0 -- -- 45
2019-11-16 15:00:00 12.1 11 Noroeste 22 Norte 0 -- -- 49
2019-11-16 14:00:00 11.2 12 Noroeste 23 Noroeste 0 -- -- 54
2019-11-16 13:00:00 9.7 11 Norte 19 Norte 0 -- -- 56
2019-11-16 12:00:00 8.5 12 Norte 18 Norte 0 -- -- 63
2019-11-16 11:00:00 6.7 10 Norte 16 Noroeste 0 -- -- 71
2019-11-16 10:00:00 4.8 12 Noroeste 17 Noroeste 0 -- -- 80
2019-11-16 09:00:00 2.6 7 Noroeste 11 Noroeste 0 -- -- 87
2019-11-16 08:00:00 1.7 7 Noroeste 15 Noroeste 0 -- -- 89
2019-11-16 07:00:00 1.5 6 Noroeste 16 Noroeste 0 -- -- 90
2019-11-16 06:00:00 1.8 11 Noroeste 17 Noroeste 0 -- -- 89
2019-11-16 05:00:00 2.2 9 Noroeste 14 Oeste 0 -- -- 88
2019-11-16 04:00:00 2.5 6 Noroeste 16 Noroeste 0 -- -- 86
2019-11-16 03:00:00 2.8 6 Noroeste 23 Noroeste 0 -- -- 84
2019-11-16 02:00:00 3.2 15 Noroeste 20 Noroeste 0 -- -- 82
2019-11-16 01:00:00 3.5 10 Noroeste 15 Noroeste 0 -- -- 79
2019-11-16 00:00:00 4.3 11 Noroeste 15 Noroeste 0 -- -- 75
2019-11-15 23:00:00 5.2 9 Noroeste 20 Noroeste 0 -- -- 70
2019-11-15 22:00:00 6.4 10 Noroeste 18 Noroeste 0 -- -- 67
2019-11-15 21:00:00 7.6 12 Noroeste 18 Noroeste 0 -- -- 63
2019-11-15 20:00:00 8.5 10 Noroeste 23 Noroeste 0 -- -- 58
2019-11-15 19:00:00 9.2 12 Noroeste 19 Norte 0 -- -- 54
2019-11-15 18:00:00 10.2 14 Norte 33 Noroeste 0 -- -- 49
2019-11-15 17:00:00 11.3 23 Norte 36 Norte 0 -- -- 46
2019-11-15 16:00:00 11.5 22 Norte 35 Norte 0 -- -- 47
2019-11-15 15:00:00 11.3 23 Norte 40 Norte 0 -- -- 49
2019-11-15 14:00:00 10.6 20 Norte 37 Norte 0 -- -- 53
2019-11-15 13:00:00 9.9 21 Norte 35 Norte 0 -- -- 54
2019-11-15 12:00:00 8.9 21 Noroeste 36 Norte 0 -- -- 66
2019-11-15 11:00:00 8.3 20 Noroeste 35 Norte 0 -- -- 68
2019-11-15 10:00:00 6.6 19 Noroeste 32 Noroeste 0 -- -- 82
2019-11-15 09:00:00 5.2 15 Noroeste 26 Noroeste 0 -- -- 87
2019-11-15 08:00:00 4.8 15 Noroeste 25 Noroeste 0 -- -- 87
2019-11-15 07:00:00 4.8 17 Noroeste 31 Noroeste 0 -- -- 87
2019-11-15 06:00:00 5.1 20 Noroeste 30 Noroeste 0 -- -- 87
2019-11-15 05:00:00 4.9 19 Noroeste 31 Noroeste 0 -- -- 89
2019-11-15 04:00:00 5.2 15 Noroeste 29 Noroeste 0 -- -- 87
2019-11-15 03:00:00 5.5 15 Noroeste 30 Noroeste 0 -- -- 84
2019-11-15 02:00:00 5.7 17 Noroeste 32 Noroeste 0 -- -- 83
2019-11-15 01:00:00 6 15 Noroeste 28 Noroeste 0 -- -- 82
2019-11-15 00:00:00 6.6 14 Noroeste 35 Noroeste 0 -- -- 79
2019-11-14 23:00:00 7.6 21 Noroeste 39 Noroeste 0 -- -- 75
2019-11-14 22:00:00 8.3 19 Noroeste 38 Noroeste 0 -- -- 77
2019-11-14 21:00:00 8.7 20 Noroeste 35 Noroeste 0 -- -- 83
2019-11-14 20:00:00 9 21 Noroeste 37 Noroeste 0 -- -- 81
2019-11-14 19:00:00 8.9 22 Noroeste 46 Noroeste 0 -- -- 77
2019-11-14 18:00:00 10.4 27 Noroeste 48 Noroeste 0 -- -- 68
2019-11-14 17:00:00 11.2 28 Noroeste 51 Noroeste 0 -- -- 66
2019-11-14 16:00:00 11.4 32 Noroeste 49 Noroeste 0 -- -- 66
2019-11-14 15:00:00 11.5 31 Noroeste 63 Noroeste 0 -- -- 62
2019-11-14 14:00:00 11.6 30 Noroeste 50 Noroeste 0 -- -- 67
2019-11-14 13:00:00 11 33 Noroeste 54 Noroeste 0 -- -- 75
2019-11-14 12:00:00 9.8 26 Noroeste 45 Noroeste 0.2 -- -- 86
2019-11-14 11:00:00 8.6 24 Norte 50 Noroeste 2.4 -- -- 94
2019-11-14 10:00:00 10.1 31 Noroeste 46 Noroeste 0.2 -- -- 90
2019-11-14 09:00:00 10.3 31 Noroeste 53 Noroeste 0.4 -- -- 91
2019-11-14 08:00:00 10.9 21 Noroeste 44 Oeste 0 -- -- 88
2019-11-14 07:00:00 10.7 28 Oeste 45 Oeste 0 -- -- 88
2019-11-14 06:00:00 10.2 23 Noroeste 39 Oeste 0 -- -- 91
2019-11-14 05:00:00 10.2 22 Noroeste 38 Oeste 0 -- -- 89
2019-11-14 04:00:00 9.5 14 Noroeste 28 Noroeste 0 -- -- 87
2019-11-14 03:00:00 9.2 18 Oeste 34 Oeste 0 -- -- 89
2019-11-14 02:00:00 9.4 19 Noroeste 32 Oeste 0 -- -- 87
2019-11-14 01:00:00 9.3 17 Oeste 26 Noroeste 0 -- -- 85
2019-11-14 00:00:00 10 13 Noroeste 32 Noroeste 0 -- -- 84
2019-11-13 23:00:00 10.8 19 Noroeste 31 Noroeste 0 -- -- 84
2019-11-13 22:00:00 11.8 12 Noroeste 28 Noroeste 0 -- -- 86
2019-11-13 21:00:00 12.8 19 Noroeste 32 Noroeste 0 -- -- 82
2019-11-13 20:00:00 14 16 Noroeste 27 Noroeste 0 -- -- 79
2019-11-13 19:00:00 15.2 13 Noroeste 29 Noroeste 0 -- -- 73
2019-11-13 18:00:00 16.6 20 Noroeste 36 Noroeste 0 -- -- 66
2019-11-13 17:00:00 17.5 24 Noroeste 37 Noroeste 0 -- -- 64
2019-11-13 16:00:00 18.3 21 Noroeste 40 Noroeste 0 -- -- 63
2019-11-13 15:00:00 18.3 26 Noroeste 39 Noroeste 0 -- -- 64
2019-11-13 14:00:00 18.7 19 Noroeste 36 Noroeste 0 -- -- 64
2019-11-13 13:00:00 18 22 Noroeste 38 Norte 0 -- -- 69
2019-11-13 12:00:00 16.5 24 Noroeste 41 Norte 0 -- -- 72
2019-11-13 11:00:00 15.3 29 Noroeste 44 Noroeste 0 -- -- 80
2019-11-13 10:00:00 14 16 Noroeste 38 Noroeste 0 -- -- 94
2019-11-13 09:00:00 13.2 20 Noroeste 38 Noroeste 0 -- -- 95
2019-11-13 08:00:00 13.1 21 Noroeste 41 Oeste 0 -- -- 92
2019-11-13 07:00:00 13 23 Noroeste 43 Oeste 0 -- -- 91
2019-11-13 06:00:00 13 23 Noroeste 41 Oeste 0 -- -- 91
2019-11-13 05:00:00 13.2 27 Noroeste 41 Oeste 0 -- -- 88
2019-11-13 04:00:00 12.9 22 Noroeste 42 Oeste 0 -- -- 87
2019-11-13 03:00:00 12.6 21 Oeste 31 Oeste 0 -- -- 88
2019-11-13 02:00:00 12 21 Oeste 37 Oeste 0 -- -- 94
2019-11-13 01:00:00 12.8 19 Noroeste 34 Noroeste 0 -- -- 86
2019-11-13 00:00:00 12.4 16 Noroeste 30 Noroeste 0 -- -- 87
2019-11-12 23:00:00 12.2 15 Noroeste 29 Noroeste 0 -- -- 87
2019-11-12 22:00:00 12.2 15 Noroeste 32 Noroeste 0 -- -- 82
2019-11-12 21:00:00 12.3 14 Noroeste 27 Noroeste 0 -- -- 78
2019-11-12 20:00:00 13.1 20 Noroeste 34 Noroeste 0 -- -- 74
2019-11-12 19:00:00 13.3 20 Noroeste 30 Noroeste 0 -- -- 68
2019-11-12 18:00:00 14.4 17 Noroeste 33 Noroeste 0 -- -- 58
2019-11-12 17:00:00 15.6 19 Noroeste 35 Norte 0 -- -- 52
2019-11-12 16:00:00 15.8 24 Norte 42 Norte 0 -- -- 48
2019-11-12 15:00:00 15.6 23 Noroeste 37 Norte 0 -- -- 47
2019-11-12 14:00:00 14.8 21 Norte 36 Norte 0 -- -- 47
2019-11-12 13:00:00 13.4 17 Norte 30 Norte 0 -- -- 56
2019-11-12 12:00:00 12.1 18 Noroeste 30 Noroeste 0 -- -- 63
2019-11-12 11:00:00 10.1 16 Noroeste 23 Noroeste 0 -- -- 77
2019-11-12 10:00:00 8.9 11 Noroeste 19 Noroeste 0 -- -- 90
2019-11-12 09:00:00 7.3 9 Noroeste 16 Noroeste 0 -- -- 98
2019-11-12 08:00:00 6.6 12 Noroeste 18 Noroeste 0 -- -- 98
2019-11-12 07:00:00 6.9 11 Noroeste 17 Noroeste 0 -- -- 97
2019-11-12 06:00:00 7.2 8 Noroeste 16 Noroeste 0 -- -- 97
2019-11-12 05:00:00 7.6 12 Noroeste 15 Noroeste 0 -- -- 97
2019-11-12 04:00:00 7.8 7 Noroeste 15 Noroeste 0 -- -- 97
2019-11-12 03:00:00 8.3 11 Noroeste 18 Noroeste 0 -- -- 97
2019-11-12 02:00:00 8.7 12 Noroeste 23 Noroeste 0 -- -- 95
2019-11-12 01:00:00 9.2 17 Noroeste 24 Noroeste 0 -- -- 93
2019-11-12 00:00:00 9.6 15 Noroeste 20 Noroeste 0 -- -- 92
2019-11-11 23:00:00 10.1 9 Noroeste 16 Noroeste 0 -- -- 91
2019-11-11 22:00:00 10.8 9 Noroeste 21 Noroeste 0 -- -- 89
2019-11-11 21:00:00 11.9 14 Noroeste 23 Noroeste 0 -- -- 87
2019-11-11 20:00:00 13.4 14 Noroeste 25 Noroeste 0 -- -- 85
2019-11-11 19:00:00 15.2 12 Noroeste 22 Noroeste 0 -- -- 82
2019-11-11 18:00:00 16 13 Noroeste 23 Noroeste 0 -- -- 83
2019-11-11 17:00:00 16.2 14 Noroeste 23 Noroeste 0 -- -- 87
2019-11-11 16:00:00 16.2 17 Noroeste 26 Noroeste 0 -- -- 86
2019-11-11 15:00:00 15.5 15 Noroeste 28 Noroeste 0 -- -- 91
2019-11-11 14:00:00 14.8 17 Noroeste 32 Noroeste 0 -- -- 93
2019-11-11 13:00:00 13.8 18 Noroeste 27 Noroeste 0 -- -- 99
2019-11-11 12:00:00 13.1 15 Noroeste 24 Noroeste 0 -- -- 100
2019-11-11 11:00:00 12.1 13 Noroeste 20 Noroeste 0 -- -- 99
2019-11-11 10:00:00 11.1 7 Noroeste 14 Noroeste 0 -- -- 99
2019-11-11 09:00:00 10.3 7 Oeste 12 Oeste 0 -- -- 99
2019-11-11 08:00:00 9.8 5 Oeste 9 Oeste 0 -- -- 99
2019-11-11 07:00:00 9.7 8 Oeste 10 Oeste 0 -- -- 98
2019-11-11 06:00:00 9.8 4 Noroeste 8 Noroeste 0.2 -- -- 98
2019-11-11 05:00:00 9.7 4 Noroeste 13 Oeste 0 -- -- 98
2019-11-11 04:00:00 9.5 9 Noroeste 14 Noroeste 0.2 -- -- 98
2019-11-11 03:00:00 9.4 8 Noroeste 15 Noroeste 0.2 -- -- 97
2019-11-11 02:00:00 9.4 12 Noroeste 21 Noroeste 0.2 -- -- 97
2019-11-11 01:00:00 9.4 10 Noroeste 16 Noroeste 0.6 -- -- 95
2019-11-11 00:00:00 9.8 10 Noroeste 21 Noroeste 0 -- -- 91
2019-11-10 23:00:00 10.4 15 Noroeste 28 Noroeste 0 -- -- 84
2019-11-10 22:00:00 10.5 21 Noroeste 31 Noroeste 0 -- -- 83
2019-11-10 21:00:00 10.7 15 Noroeste 32 Noroeste 0 -- -- 82
2019-11-10 20:00:00 10.9 21 Noroeste 36 Noroeste 0 -- -- 79
2019-11-10 19:00:00 11.1 20 Noroeste 33 Noroeste 0 -- -- 77
2019-11-10 18:00:00 11.3 19 Noroeste 38 Noroeste 0 -- -- 77
2019-11-10 17:00:00 11.7 17 Norte 24 Norte 0.2 -- -- 71
2019-11-10 16:00:00 11.7 13 Nordeste 32 Nordeste 0 -- -- 71
2019-11-10 15:00:00 12.3 23 Norte 39 Norte 0 -- -- 61
2019-11-10 14:00:00 13.4 22 Norte 38 Norte 0 -- -- 51
2019-11-10 13:00:00 13.8 30 Norte 44 Norte 0 -- -- 48
2019-11-10 12:00:00 12.6 27 Norte 43 Norte 0 -- -- 56
2019-11-10 11:00:00 11.7 24 Norte 40 Norte 0 -- -- 62
2019-11-10 10:00:00 9.9 17 Noroeste 28 Noroeste 0 -- -- 86
2019-11-10 09:00:00 7.6 11 Noroeste 24 Noroeste 0 -- -- 95
2019-11-10 08:00:00 7.3 16 Noroeste 25 Noroeste 0 -- -- 96
2019-11-10 07:00:00 7.6 13 Noroeste 22 Noroeste 0 -- -- 96
2019-11-10 06:00:00 8.1 16 Noroeste 26 Noroeste 0 -- -- 95
2019-11-10 05:00:00 8.3 16 Noroeste 27 Noroeste 0 -- -- 93
2019-11-10 04:00:00 8.1 12 Noroeste 25 Noroeste 0 -- -- 92
2019-11-10 03:00:00 8.4 16 Noroeste 28 Noroeste 0 -- -- 91
2019-11-10 02:00:00 8.9 19 Noroeste 31 Noroeste 0 -- -- 91
2019-11-10 01:00:00 9.7 17 Noroeste 28 Noroeste 0 -- -- 90
2019-11-10 00:00:00 11.2 17 Noroeste 39 Noroeste 0 -- -- 91